Time;durP1;ratioP1;P1;durP2;ratioP2;P2;SDS_P1;SDS_P2;PMS_P1;PMS_P2;Temp;Humidity;BMP_temperature;BMP_pressure;BME280_temperature;BME280_humidity;BME280_pressure;Samples;Min_cycle;Max_cycle;Signal;HPM_P1;HPM_P2
2021/03/27 00:01:01;;;;;;;57.25;22.27;;;;;;;2.46;54.66;94694.59;5089168;28;20038;-69
2021/03/27 00:03:43;;;;;;;49.40;19.10;;;;;;;2.51;54.49;94698.09;5088972;28;20022;-69
2021/03/27 00:06:44;;;;;;;36.67;14.55;;;;;;;2.47;53.34;94696.19;5090255;28;20024;-68
2021/03/27 00:09:10;;;;;;;28.02;13.88;;;;;;;2.41;53.27;94688.22;5042718;28;20069;-69
2021/03/27 00:11:44;;;;;;;33.92;15.77;;;;;;;2.36;54.38;94696.03;5088977;28;20035;-69
2021/03/27 00:14:17;;;;;;;32.15;13.85;;;;;;;2.34;53.28;94689.41;5089115;28;20020;-68
2021/03/27 00:17:01;;;;;;;34.22;17.33;;;;;;;2.28;54.46;94693.00;5090310;28;20020;-69
2021/03/27 00:19:51;;;;;;;46.63;18.88;;;;;;;2.28;54.30;94687.75;5088778;28;20040;-69
2021/03/27 00:22:25;;;;;;;41.05;19.00;;;;;;;2.24;54.69;94686.63;5088943;28;20101;-69
2021/03/27 00:25:21;;;;;;;41.00;15.00;;;;;;;2.24;53.35;94686.63;5090027;28;20453;-69
2021/03/27 00:27:55;;;;;;;33.30;14.85;;;;;;;2.13;54.32;94683.84;5088471;28;20486;-69
2021/03/27 00:30:26;;;;;;;25.88;12.90;;;;;;;2.10;53.84;94676.44;5090262;28;20016;-69
2021/03/27 00:32:56;;;;;;;27.40;12.80;;;;;;;2.09;53.29;94687.97;5089897;28;20072;-69
2021/03/27 00:35:29;;;;;;;32.75;16.45;;;;;;;2.03;55.10;94675.78;5088696;28;20119;-69
2021/03/27 00:37:59;;;;;;;33.08;16.23;;;;;;;1.94;55.62;94679.88;5089851;28;20017;-70
2021/03/27 00:40:27;;;;;;;29.33;13.80;;;;;;;1.96;54.81;94669.91;5090035;28;20039;-69
2021/03/27 00:43:04;;;;;;;22.55;10.90;;;;;;;2.02;54.53;94678.69;5088752;28;20032;-68
2021/03/27 00:45:44;;;;;;;23.02;12.07;;;;;;;1.98;53.80;94673.09;5088729;28;20086;-69
2021/03/27 00:48:15;;;;;;;29.98;13.05;;;;;;;1.97;54.66;94671.50;5089846;28;20032;-69
2021/03/27 00:50:47;;;;;;;25.92;13.65;;;;;;;1.96;55.01;94680.44;5088562;28;20032;-69
2021/03/27 00:53:20;;;;;;;;;;;;;;;1.84;56.04;94672.63;5090167;28;20491;-69
2021/03/27 00:55:51;;;;;;;25.65;13.98;;;;;;;1.78;56.67;94673.56;5089653;28;19928;-69
2021/03/27 00:58:25;;;;;;;35.00;16.77;;;;;;;1.75;56.42;94672.22;5088701;28;20036;-68
2021/03/27 01:00:55;;;;;;;37.40;16.48;;;;;;;1.65;56.47;94669.41;5088357;28;20059;-69
2021/03/27 01:03:35;;;;;;;40.25;15.20;;;;;;;1.73;56.21;94668.22;5088438;28;20036;-69
2021/03/27 01:06:05;;;;;;;39.80;17.23;;;;;;;1.76;56.25;94665.13;5089486;28;20441;-69
2021/03/27 01:08:31;;;;;;;38.85;18.63;;;;;;;1.70;56.25;94658.97;5089794;28;20449;-69
2021/03/27 01:11:06;;;;;;;41.58;17.63;;;;;;;1.71;55.88;94657.94;5088412;28;20027;-69
2021/03/27 01:13:45;;;;;;;33.50;16.20;;;;;;;1.78;55.82;94668.31;5088531;28;20018;-68
2021/03/27 01:16:16;;;;;;;37.55;15.65;;;;;;;1.64;56.16;94667.00;5088281;28;20042;-69
2021/03/27 01:18:50;;;;;;;32.08;15.27;;;;;;;1.62;56.25;94677.75;5089634;28;20032;-68
2021/03/27 01:21:23;;;;;;;31.67;15.60;;;;;;;1.59;56.75;94678.25;5089616;28;20094;-68
2021/03/27 01:23:55;;;;;;;31.73;15.55;;;;;;;1.58;56.82;94685.31;5089671;28;20035;-69
2021/03/27 01:26:24;;;;;;;35.97;15.63;;;;;;;1.58;56.98;94679.25;5089549;28;20028;-69
2021/03/27 01:28:57;;;;;;;31.25;14.77;;;;;;;1.64;57.00;94675.69;5088183;28;20024;-69
2021/03/27 01:31:32;;;;;;;31.13;14.32;;;;;;;1.59;57.09;94678.25;5091052;28;20028;-69
2021/03/27 01:34:02;;;;;;;29.85;14.18;;;;;;;1.59;56.96;94675.63;5091668;28;20089;-69
2021/03/27 01:36:33;;;;;;;32.88;15.48;;;;;;;1.59;56.33;94675.63;5092979;28;20028;-69
2021/03/27 01:39:15;;;;;;;33.78;15.80;;;;;;;1.57;56.66;94672.44;5093154;28;20027;-69
2021/03/27 01:42:16;;;;;;;28.42;14.23;;;;;;;1.57;56.43;94672.44;5092996;28;20028;-69
2021/03/27 01:45:12;;;;;;;28.48;13.55;;;;;;;1.56;56.93;94682.13;5092975;28;20224;-69
2021/03/27 01:47:57;;;;;;;28.70;13.68;;;;;;;1.52;57.27;94672.31;5092899;28;20024;-69
2021/03/27 01:50:44;;;;;;;34.58;14.10;;;;;;;1.43;57.55;94671.13;5091633;28;20028;-69
2021/03/27 01:53:38;;;;;;;27.73;14.32;;;;;;;1.40;57.66;94672.38;5092776;28;20034;-69
2021/03/27 01:56:16;;;;;;;31.35;14.45;;;;;;;1.41;57.90;94668.72;5089909;28;20083;-69
2021/03/27 01:59:05;;;;;;;29.23;14.00;;;;;;;1.36;57.99;94681.75;5091438;28;20100;-69
2021/03/27 02:02:00;;;;;;;23.95;12.50;;;;;;;1.33;57.32;94677.00;5091386;28;20024;-69
2021/03/27 02:04:47;;;;;;;30.33;13.32;;;;;;;1.33;57.35;94679.63;5075395;28;20047;-69
2021/03/27 02:07:51;;;;;;;25.52;12.65;;;;;;;1.30;57.47;94674.81;5091265;28;20040;-69
2021/03/27 02:10:27;;;;;;;23.45;11.57;;;;;;;1.28;58.02;94682.94;5050892;28;20036;-69
2021/03/27 02:13:06;;;;;;;25.48;11.38;;;;;;;1.26;57.56;94677.09;5092588;28;20506;-69
2021/03/27 02:15:58;;;;;;;27.20;11.63;;;;;;;1.18;57.93;94682.72;5092451;28;20027;-68
2021/03/27 02:18:31;;;;;;;23.05;11.65;;;;;;;1.20;57.80;94686.75;5091058;28;20494;-69
2021/03/27 02:21:08;;;;;;;30.08;12.50;;;;;;;1.25;57.75;94686.03;5092324;28;20504;-69
2021/03/27 02:24:05;;;;;;;29.13;12.57;;;;;;;1.25;58.10;94683.41;5092347;28;20027;-69
2021/03/27 02:27:08;;;;;;;23.90;11.45;;;;;;;1.23;58.00;94687.31;5092030;28;20087;-69
2021/03/27 02:29:45;;;;;;;25.10;12.50;;;;;;;1.19;58.13;94687.75;5090683;28;20028;-69
2021/03/27 02:32:17;;;;;;;26.70;13.05;;;;;;;1.23;58.04;94688.09;5090702;28;20024;-69
2021/03/27 02:35:00;;;;;;;26.08;12.60;;;;;;;1.18;57.83;94687.97;5092309;28;20040;-69
2021/03/27 02:37:28;;;;;;;24.23;12.35;;;;;;;1.17;58.56;94694.28;5091969;28;20016;-70
2021/03/27 02:40:01;;;;;;;30.10;15.10;;;;;;;1.13;58.58;94693.16;5091965;28;20081;-70
2021/03/27 02:42:54;;;;;;;28.83;13.68;;;;;;;1.10;58.73;94699.69;5090923;28;20073;-69
2021/03/27 02:45:34;;;;;;;31.45;14.13;;;;;;;1.10;58.64;94688.34;5089190;28;20515;-69
2021/03/27 02:48:41;;;;;;;30.80;15.27;;;;;;;1.02;58.95;94697.41;5090457;28;20079;-69
2021/03/27 02:51:16;;;;;;;36.42;16.45;;;;;;;1.02;59.57;94696.59;5012742;28;20076;-69
2021/03/27 02:54:04;;;;;;;36.55;16.65;;;;;;;0.98;59.33;94697.06;5012610;28;20485;-69
2021/03/27 02:56:48;;;;;;;40.17;17.48;;;;;;;0.95;59.24;94702.78;5058334;28;20035;-69
2021/03/27 02:59:41;;;;;;;33.13;15.85;;;;;;;0.94;59.21;94695.94;5090446;28;20431;-69
2021/03/27 03:02:28;;;;;;;38.92;16.73;;;;;;;0.82;59.92;94707.50;5091602;28;20032;-69
2021/03/27 03:05:27;;;;;;;31.33;16.95;;;;;;;0.80;60.05;94699.84;5090085;28;20028;-69
2021/03/27 03:08:11;;;;;;;38.42;16.15;;;;;;;0.85;59.82;94707.81;5087724;28;20126;-69
2021/03/27 03:10:49;;;;;;;32.33;15.43;;;;;;;0.78;59.53;94701.91;5089973;28;20105;-69
2021/03/27 03:13:30;;;;;;;33.17;15.60;;;;;;;0.79;59.91;94719.25;5091230;28;20102;-69
2021/03/27 03:16:10;;;;;;;38.55;18.88;;;;;;;0.77;59.68;94705.56;5091384;28;20020;-69
2021/03/27 03:18:43;;;;;;;31.35;17.02;;;;;;;0.76;59.59;94707.38;5089975;28;20054;-69
2021/03/27 03:21:33;;;;;;;36.47;16.45;;;;;;;0.75;59.97;94710.22;5091291;28;20097;-69
2021/03/27 03:24:20;;;;;;;34.35;15.75;;;;;;;0.73;59.96;94714.91;5090061;28;20024;-69
2021/03/27 03:27:22;;;;;;;32.70;17.10;;;;;;;0.73;59.70;94714.91;5090849;28;20032;-69
2021/03/27 03:30:17;;;;;;;42.83;18.20;;;;;;;0.69;59.81;94719.03;5048338;28;20089;-69
2021/03/27 03:32:54;;;;;;;40.70;19.35;;;;;;;0.63;60.44;94710.25;5091040;28;20024;-69
2021/03/27 03:35:42;;;;;;;38.28;17.88;;;;;;;0.67;59.79;94707.97;5090825;28;20027;-69
2021/03/27 03:38:28;;;;;;;40.70;17.05;;;;;;;0.68;60.08;94717.44;5090993;28;20024;-70
2021/03/27 03:41:14;;;;;;;34.50;15.95;;;;;;;0.71;59.13;94716.97;5089377;28;20032;-69
2021/03/27 03:43:57;;;;;;;40.42;17.40;;;;;;;0.64;59.55;94721.56;5089325;28;20027;-70
2021/03/27 03:46:50;;;;;;;43.33;17.08;;;;;;;0.56;59.85;94731.34;5089375;28;20507;-69
2021/03/27 03:49:40;;;;;;;32.60;14.65;;;;;;;0.56;60.11;94714.81;5089362;28;20081;-69
2021/03/27 03:52:24;;;;;;;29.67;13.15;;;;;;;0.48;59.31;94723.84;5089459;28;20123;-69
2021/03/27 03:55:02;;;;;;;30.85;13.93;;;;;;;0.43;59.47;94720.28;5089976;28;20101;-69
2021/03/27 03:57:31;;;;;;;28.60;13.52;;;;;;;0.40;59.93;94732.84;5089363;28;20027;-69
2021/03/27 04:00:09;;;;;;;35.10;14.80;;;;;;;0.37;60.29;94724.66;5089182;28;20019;-69
2021/03/27 04:02:57;;;;;;;29.02;14.48;;;;;;;0.30;60.77;94727.34;5089147;28;20016;-69
2021/03/27 04:05:33;;;;;;;41.75;17.35;;;;;;;0.26;60.52;94730.66;5090507;28;20061;-70
2021/03/27 04:08:22;;;;;;;38.40;14.20;;;;;;;0.29;60.28;94730.22;5089148;28;20499;-69
2021/03/27 04:10:55;;;;;;;36.00;16.00;;;;;;;0.29;60.33;94730.22;5090285;28;20471;-69
2021/03/27 04:13:31;;;;;;;38.42;16.90;;;;;;;0.29;60.99;94722.34;5089176;28;20030;-69
2021/03/27 04:16:15;;;;;;;36.65;15.95;;;;;;;0.38;60.19;94736.72;5088964;28;20020;-69
2021/03/27 04:18:51;;;;;;;33.80;15.98;;;;;;;0.24;60.62;94738.75;5089339;28;20024;-69
2021/03/27 04:21:16;;;;;;;33.53;15.18;;;;;;;0.25;60.53;94735.13;5089031;28;20077;-69
2021/03/27 04:24:00;;;;;;;35.95;16.05;;;;;;;0.20;60.75;94735.00;5088845;28;20537;-69
2021/03/27 04:26:42;;;;;;;39.80;17.92;;;;;;;0.28;61.37;94739.09;5090121;28;20043;-69
2021/03/27 04:29:19;;;;;;;;;;;;;;;0.29;61.29;94740.72;5090650;28;20032;-69
2021/03/27 04:31:53;;;;;;;34.88;15.75;;;;;;;0.30;61.31;94743.09;5090160;28;20412;-70
2021/03/27 04:34:31;;;;;;;34.88;13.45;;;;;;;0.36;60.90;94746.63;5088890;28;20554;-69
2021/03/27 04:36:59;;;;;;;47.45;18.08;;;;;;;0.37;61.00;94758.75;5090120;28;20028;-69
2021/03/27 04:39:35;;;;;;;33.13;16.23;;;;;;;0.44;61.03;94751.53;5088779;28;20059;-69
2021/03/27 04:42:22;;;;;;;47.95;20.40;;;;;;;0.48;61.85;94759.75;5088612;28;20020;-68
2021/03/27 04:45:09;;;;;;;40.83;18.35;;;;;;;0.45;61.47;94760.19;5089834;28;20028;-69
2021/03/27 04:47:52;;;;;;;43.78;18.67;;;;;;;0.45;61.70;94763.66;5088787;28;20076;-69
2021/03/27 04:50:39;;;;;;;54.50;23.70;;;;;;;0.54;62.34;94762.25;5089850;28;20031;-69
2021/03/27 04:53:33;;;;;;;55.55;21.80;;;;;;;0.59;62.42;94759.78;5089856;28;20032;-69
2021/03/27 04:56:40;;;;;;;48.78;22.52;;;;;;;0.64;62.13;94759.06;5087662;28;20568;-70
2021/03/27 04:59:17;;;;;;;57.63;24.65;;;;;;;0.62;62.56;94765.59;5089957;28;20024;-69
2021/03/27 05:01:55;;;;;;;46.03;22.13;;;;;;;0.75;62.75;94770.59;5089739;28;20491;-69
2021/03/27 05:04:40;;;;;;;57.58;23.25;;;;;;;0.79;62.48;94774.34;5089715;28;20093;-69
2021/03/27 05:07:16;;;;;;;49.45;22.85;;;;;;;0.83;62.57;94778.13;5092575;28;20035;-70
2021/03/27 05:09:48;;;;;;;55.60;23.73;;;;;;;0.88;62.55;94775.63;5093709;28;20032;-70
2021/03/27 05:12:19;;;;;;;62.53;25.17;;;;;;;0.92;62.36;94774.13;5092170;28;20100;-69
2021/03/27 05:15:09;;;;;;;56.03;22.85;;;;;;;1.03;62.19;94784.84;5092440;28;20051;-69
2021/03/27 05:17:43;;;;;;;51.33;23.00;;;;;;;1.09;61.86;94778.66;5093872;28;20020;-69
2021/03/27 05:20:16;;;;;;;64.35;22.10;;;;;;;1.12;61.69;94789.53;5093511;28;20539;-69
2021/03/27 05:22:47;;;;;;;53.88;24.13;;;;;;;1.20;61.27;94793.59;5092257;28;20092;-69
2021/03/27 05:25:15;;;;;;;52.17;23.77;;;;;;;1.20;61.16;94780.47;5091918;28;20024;-70
2021/03/27 05:28:01;;;;;;;56.97;23.85;;;;;;;1.20;61.26;94783.09;5093583;28;20024;-69
2021/03/27 05:31:11;;;;;;;63.28;28.25;;;;;;;1.18;61.79;94780.72;5093242;28;20031;-69
2021/03/27 05:33:55;;;;;;;63.08;25.17;;;;;;;1.22;62.00;94783.66;5071768;28;20059;-69
2021/03/27 05:36:33;;;;;;;60.13;26.52;;;;;;;1.25;62.23;94783.22;5093083;28;20058;-69
2021/03/27 05:39:24;;;;;;;66.95;28.95;;;;;;;1.32;62.18;94785.69;5091888;28;20118;-70
2021/03/27 05:42:17;;;;;;;64.25;28.80;;;;;;;1.37;61.98;94793.69;5064153;28;20044;-69
2021/03/27 05:45:04;;;;;;;65.00;29.27;;;;;;;1.45;61.78;94789.91;5091897;28;20406;-69
2021/03/27 05:47:39;;;;;;;81.75;31.45;;;;;;;1.49;61.97;94793.66;5091422;28;20031;-69
2021/03/27 05:50:29;;;;;;;82.72;33.90;;;;;;;1.58;61.58;94794.88;5092902;28;20040;-69
2021/03/27 05:53:00;;;;;;;86.55;37.80;;;;;;;1.64;61.58;94793.16;5092770;28;20051;-70
2021/03/27 05:55:34;;;;;;;89.35;37.30;;;;;;;1.69;61.35;94788.81;5091115;28;20040;-69
2021/03/27 05:58:19;;;;;;;72.20;35.95;;;;;;;1.76;61.30;94792.06;5091303;28;20020;-70
2021/03/27 06:00:53;;;;;;;75.72;33.63;;;;;;;1.80;61.60;94792.41;5092901;28;20028;-69
2021/03/27 06:03:38;;;;;;;81.50;34.90;;;;;;;1.87;61.23;94789.63;5090858;28;20016;-70
2021/03/27 06:06:39;;;;;;;73.15;33.67;;;;;;;1.96;61.16;94796.13;5092673;28;20028;-69
2021/03/27 06:09:56;;;;;;;80.60;36.23;;;;;;;2.00;60.94;94797.25;5092639;28;20082;-69
2021/03/27 06:12:24;;;;;;;76.57;33.38;;;;;;;2.00;61.24;94802.50;5046593;28;20135;-70
2021/03/27 06:15:16;;;;;;;70.60;32.33;;;;;;;1.99;60.65;94801.72;5091247;28;20020;-69
2021/03/27 06:17:47;;;;;;;71.70;33.23;;;;;;;2.12;60.44;94808.50;5092360;28;20031;-68
2021/03/27 06:20:12;;;;;;;84.40;33.95;;;;;;;2.23;59.81;94800.78;5092433;28;20277;-69
2021/03/27 06:22:51;;;;;;;68.57;31.92;;;;;;;2.22;60.03;94800.00;5091014;28;20032;-69
2021/03/27 06:25:54;;;;;;;64.15;30.60;;;;;;;2.25;59.73;94803.97;5092253;28;20028;-68
2021/03/27 06:28:38;;;;;;;73.13;30.95;;;;;;;2.30;59.67;94809.31;5092296;28;20028;-69
2021/03/27 06:31:22;;;;;;;66.68;32.15;;;;;;;2.19;60.14;94816.25;5090869;28;20032;-69
2021/03/27 06:34:05;;;;;;;67.68;32.22;;;;;;;2.24;60.18;94818.16;5090641;28;20024;-69
2021/03/27 06:36:59;;;;;;;68.78;31.70;;;;;;;2.41;59.33;94808.47;5090523;28;20028;-69
2021/03/27 06:39:49;;;;;;;58.83;27.70;;;;;;;2.58;58.79;94811.09;5091947;28;20024;-69
2021/03/27 06:42:36;;;;;;;67.35;29.42;;;;;;;2.66;57.77;94805.41;5090595;28;20028;-69
2021/03/27 06:45:33;;;;;;;58.08;28.95;;;;;;;2.74;57.30;94812.13;5091899;28;20526;-68
2021/03/27 06:48:32;;;;;;;65.30;29.80;;;;;;;2.90;57.48;94807.91;5091573;28;20024;-69
2021/03/27 06:51:16;;;;;;;76.80;33.25;;;;;;;3.08;56.09;94807.63;5090517;28;20024;-69
2021/03/27 06:53:56;;;;;;;66.57;29.05;;;;;;;3.20;55.63;94812.78;5091566;28;20024;-69
2021/03/27 06:56:25;;;;;;;66.22;29.35;;;;;;;3.31;55.67;94816.34;5090029;28;20028;-69
2021/03/27 06:58:56;;;;;;;65.05;30.30;;;;;;;3.41;55.43;94817.28;5091502;28;20054;-69
2021/03/27 07:01:30;;;;;;;62.75;27.05;;;;;;;3.54;55.33;94821.41;5090590;28;20028;-69
2021/03/27 07:04:27;;;;;;;51.40;25.65;;;;;;;3.68;54.59;94815.75;5091568;28;20036;-69
2021/03/27 07:07:26;;;;;;;53.40;26.52;;;;;;;3.83;53.89;94813.31;5089807;28;20081;-69
2021/03/27 07:10:00;;;;;;;48.20;24.25;;;;;;;3.94;53.63;94819.47;5089981;28;20028;-69
2021/03/27 07:12:56;;;;;;;61.13;24.88;;;;;;;4.02;53.14;94817.19;5091512;28;20111;-69
2021/03/27 07:15:57;;;;;;;51.28;23.98;;;;;;;4.17;52.51;94824.47;5090212;28;20032;-69
2021/03/27 07:18:54;;;;;;;48.88;26.42;;;;;;;4.27;52.68;94822.97;5091314;28;20153;-70
2021/03/27 07:21:52;;;;;;;63.55;25.25;;;;;;;4.29;52.25;94824.31;5091331;28;20081;-70
2021/03/27 07:24:44;;;;;;;70.13;26.27;;;;;;;4.40;52.26;94823.38;5090106;28;20039;-69
2021/03/27 07:27:51;;;;;;;54.03;22.38;;;;;;;4.45;51.87;94825.25;5091190;28;20028;-70
2021/03/27 07:30:16;;;;;;;50.17;21.63;;;;;;;4.51;51.56;94823.47;5078441;28;20035;-69
2021/03/27 07:32:52;;;;;;;50.40;21.80;;;;;;;4.66;50.65;94823.59;5090906;28;20042;-70
2021/03/27 07:35:17;;;;;;;47.53;21.63;;;;;;;4.75;50.51;94826.56;5089783;28;20545;-70
2021/03/27 07:37:58;;;;;;;46.15;19.20;;;;;;;4.71;49.88;94820.97;5090682;28;20070;-70
2021/03/27 07:40:23;;;;;;;35.53;17.40;;;;;;;4.85;49.60;94837.22;5091094;28;20036;-69
2021/03/27 07:43:10;;;;;;;34.92;16.75;;;;;;;4.95;48.92;94832.00;5090679;28;20016;-69
2021/03/27 07:45:52;;;;;;;33.38;15.98;;;;;;;5.06;48.55;94834.72;5089413;28;20475;-70
2021/03/27 07:48:32;;;;;;;35.22;16.05;;;;;;;5.17;48.84;94831.06;5089505;28;20028;-69
2021/03/27 07:51:28;;;;;;;30.00;14.15;;;;;;;5.27;47.50;94833.81;5089485;28;20032;-70
2021/03/27 07:54:19;;;;;;;23.88;12.38;;;;;;;5.39;47.28;94823.81;5088956;28;20036;-69
2021/03/27 07:57:02;;;;;;;30.00;11.85;;;;;;;5.49;46.42;94830.19;5089109;28;20032;-70
2021/03/27 07:59:47;;;;;;;21.00;10.65;;;;;;;5.55;46.06;94823.88;5089190;28;20115;-70
2021/03/27 08:02:27;;;;;;;20.83;11.48;;;;;;;5.67;45.83;94823.69;5090248;28;20078;-70
2021/03/27 08:05:28;;;;;;;25.35;11.60;;;;;;;5.79;45.34;94825.03;5088813;28;20107;-70
2021/03/27 08:08:31;;;;;;;20.15;10.50;;;;;;;5.78;45.52;94823.47;5088623;28;20106;-69
2021/03/27 08:10:59;;;;;;;;;;;;;;;5.88;45.12;94825.34;5089211;28;20153;-70
2021/03/27 08:13:48;;;;;;;27.38;10.00;;;;;;;6.01;45.42;94819.59;5090209;28;19911;-70
2021/03/27 08:16:16;;;;;;;23.50;10.93;;;;;;;6.19;45.26;94826.28;5090068;28;20067;-69
2021/03/27 08:19:06;;;;;;;20.50;10.77;;;;;;;6.34;44.77;94822.84;5090430;28;20036;-69
2021/03/27 08:22:09;;;;;;;34.67;13.32;;;;;;;6.49;44.14;94822.06;5088815;28;20097;-69
2021/03/27 08:24:59;;;;;;;23.35;12.85;;;;;;;6.62;43.64;94818.91;5088822;28;20097;-69
2021/03/27 08:27:46;;;;;;;29.55;12.98;;;;;;;6.76;43.60;94811.25;5090144;28;20028;-70
2021/03/27 08:30:31;;;;;;;23.73;11.65;;;;;;;6.90;42.79;94824.75;5088427;28;20438;-70
2021/03/27 08:33:05;;;;;;;24.90;11.85;;;;;;;6.99;42.96;94817.06;5090197;28;20547;-69
2021/03/27 08:35:51;;;;;;;26.60;11.60;;;;;;;7.06;42.41;94812.25;5088839;28;20027;-70
2021/03/27 08:38:17;;;;;;;19.50;11.20;;;;;;;7.16;41.90;94816.75;5088553;28;20089;-70
2021/03/27 08:40:52;;;;;;;23.15;12.60;;;;;;;7.26;42.20;94819.41;5090654;28;20032;-70
2021/03/27 08:43:37;;;;;;;25.80;12.55;;;;;;;7.37;41.63;94814.88;5094265;28;20028;-69
2021/03/27 08:46:24;;;;;;;22.58;12.07;;;;;;;7.41;41.91;94819.38;5092676;28;20419;-70
2021/03/27 08:49:14;;;;;;;22.17;12.57;;;;;;;7.51;41.59;94812.44;5094071;28;20036;-70
2021/03/27 08:51:58;;;;;;;21.27;12.18;;;;;;;7.58;41.20;94812.97;5090094;28;20040;-70
2021/03/27 08:54:54;;;;;;;23.77;12.10;;;;;;;7.71;41.02;94815.03;5093744;28;20064;-70
2021/03/27 08:57:41;;;;;;;28.13;11.82;;;;;;;7.82;40.72;94819.25;5093669;28;20556;-70
2021/03/27 09:00:13;;;;;;;25.73;13.60;;;;;;;7.91;40.69;94816.03;5092556;28;20035;-70
2021/03/27 09:03:01;;;;;;;30.00;15.25;;;;;;;8.04;40.58;94818.09;5093973;28;20497;-70
2021/03/27 09:05:42;;;;;;;32.22;15.07;;;;;;;8.07;40.16;94819.41;5090432;28;20032;-70
2021/03/27 09:08:26;;;;;;;28.98;14.20;;;;;;;8.22;40.10;94812.16;5092347;28;20032;-70
2021/03/27 09:11:19;;;;;;;30.65;15.35;;;;;;;8.33;40.32;94815.53;5093819;28;20024;-70
2021/03/27 09:14:10;;;;;;;26.52;14.75;;;;;;;8.34;39.06;94813.66;5094235;28;20031;-69
2021/03/27 09:16:54;;;;;;;35.80;16.33;;;;;;;8.38;40.01;94814.72;5088202;28;20108;-70
2021/03/27 09:19:33;;;;;;;33.38;14.27;;;;;;;8.44;40.32;94813.63;5093435;28;20107;-70
2021/03/27 09:22:32;;;;;;;25.10;14.30;;;;;;;8.58;40.66;94811.94;5093482;28;20073;-70
2021/03/27 09:25:16;;;;;;;36.22;14.05;;;;;;;8.73;40.04;94816.38;5092975;28;20024;-70
2021/03/27 09:28:10;;;;;;;25.83;15.00;;;;;;;8.86;40.47;94808.84;5091800;28;20480;-70
2021/03/27 09:31:12;;;;;;;33.55;16.80;;;;;;;8.98;39.97;94815.38;5091478;28;20093;-70
2021/03/27 09:33:53;;;;;;;32.60;15.20;;;;;;;9.09;39.84;94804.63;5091547;28;20612;-70
2021/03/27 09:36:32;;;;;;;28.33;15.25;;;;;;;9.22;39.14;94796.00;5091613;28;20043;-70
2021/03/27 09:39:17;;;;;;;41.05;16.70;;;;;;;9.32;38.97;94805.75;5092697;28;20034;-70
2021/03/27 09:42:04;;;;;;;33.58;16.38;;;;;;;9.41;39.00;94799.53;5091708;28;20122;-69
2021/03/27 09:44:44;;;;;;;32.40;13.35;;;;;;;9.51;38.15;94803.16;5091580;28;20460;-70
2021/03/27 09:47:48;;;;;;;27.35;14.30;;;;;;;9.60;38.01;94806.78;5091322;28;20028;-69
2021/03/27 09:50:26;;;;;;;28.98;14.80;;;;;;;9.66;37.49;94799.53;5092840;28;20039;-70
2021/03/27 09:53:16;;;;;;;27.30;13.75;;;;;;;9.78;37.52;94798.06;5092425;28;20466;-70
2021/03/27 09:55:49;;;;;;;25.17;12.95;;;;;;;9.84;37.15;94807.56;5091027;28;20055;-70
2021/03/27 09:58:30;;;;;;;30.13;15.25;;;;;;;10.02;37.75;94799.91;5091437;28;20016;-70
2021/03/27 10:01:03;;;;;;;27.23;13.90;;;;;;;10.12;37.21;94796.31;5091569;28;20665;-70
2021/03/27 10:04:02;;;;;;;29.33;14.13;;;;;;;9.90;36.58;94792.31;5092596;28;20427;-69
2021/03/27 10:07:11;;;;;;;29.17;13.95;;;;;;;10.05;37.27;94786.00;5092640;28;20032;-70
2021/03/27 10:10:03;;;;;;;30.92;14.35;;;;;;;10.25;37.46;94788.38;5091184;28;20031;-71
2021/03/27 10:12:59;;;;;;;35.63;15.00;;;;;;;10.43;36.98;94781.50;5092309;28;20016;-71
2021/03/27 10:15:47;;;;;;;32.42;15.32;;;;;;;10.59;36.34;94779.41;5092240;28;20016;-70
2021/03/27 10:18:34;;;;;;;32.38;14.82;;;;;;;10.74;36.29;94773.03;5089491;28;20505;-70
2021/03/27 10:21:18;;;;;;;28.75;13.02;;;;;;;10.91;36.54;94777.84;5092335;28;20115;-70
2021/03/27 10:24:01;;;;;;;37.88;13.20;;;;;;;11.04;36.47;94779.75;5091959;28;20032;-70
2021/03/27 10:26:44;;;;;;;31.60;14.52;;;;;;;11.17;34.94;94780.06;5092189;28;20032;-70
2021/03/27 10:29:35;;;;;;;29.17;14.50;;;;;;;11.27;35.07;94779.88;5090546;28;20044;-71
2021/03/27 10:32:19;;;;;;;28.63;13.63;;;;;;;11.38;34.46;94773.28;5091792;28;20020;-70
2021/03/27 10:34:48;;;;;;;25.20;13.57;;;;;;;11.48;34.50;94771.50;5090411;28;20024;-70
2021/03/27 10:37:24;;;;;;;26.95;13.18;;;;;;;11.59;34.16;94770.25;5091788;28;20019;-70
2021/03/27 10:39:55;;;;;;;33.30;13.50;;;;;;;11.74;34.75;94764.59;5090409;28;20116;-70
2021/03/27 10:42:44;;;;;;;29.53;14.17;;;;;;;11.82;34.17;94771.13;5090609;28;20074;-70
2021/03/27 10:45:24;;;;;;;33.72;15.95;;;;;;;11.91;34.01;94771.25;5090249;28;20274;-70
2021/03/27 10:48:04;;;;;;;31.08;15.23;;;;;;;12.07;34.42;94769.03;5089864;28;20024;-70
2021/03/27 10:50:49;;;;;;;30.75;14.75;;;;;;;12.20;33.00;94777.03;5091749;28;20480;-69
2021/03/27 10:53:23;;;;;;;40.28;20.67;;;;;;;12.28;32.79;94756.03;5090208;28;20039;-70
2021/03/27 10:56:06;;;;;;;25.92;13.07;;;;;;;12.32;32.34;94759.69;5090064;28;20424;-69
2021/03/27 10:59:01;;;;;;;25.35;12.77;;;;;;;12.39;32.77;94757.38;5090367;28;20024;-68
2021/03/27 11:01:45;;;;;;;26.83;12.75;;;;;;;12.37;31.56;94760.34;5090157;28;20028;-68
2021/03/27 11:04:32;;;;;;;30.77;13.85;;;;;;;12.38;32.86;94753.91;5089003;28;20089;-69
2021/03/27 11:07:14;;;;;;;31.80;15.30;;;;;;;12.51;32.56;94754.97;5089778;28;20407;-69
2021/03/27 11:09:51;;;;;;;22.73;13.53;;;;;;;12.63;31.30;94751.75;5091218;28;20477;-69
2021/03/27 11:12:37;;;;;;;42.65;15.38;;;;;;;12.70;32.67;94744.09;5091212;28;20288;-69
2021/03/27 11:15:06;;;;;;;28.95;13.77;;;;;;;12.91;32.89;94751.63;5089718;28;20376;-69
2021/03/27 11:17:53;;;;;;;28.30;12.95;;;;;;;13.07;31.03;94739.44;5090027;28;20034;-69
2021/03/27 11:20:59;;;;;;;26.00;11.80;;;;;;;13.18;30.74;94739.97;5091182;28;20024;-69
2021/03/27 11:23:38;;;;;;;25.63;13.10;;;;;;;13.31;30.91;94741.81;5090954;28;20031;-69
2021/03/27 11:26:28;;;;;;;29.60;12.18;;;;;;;13.38;29.97;94731.41;5091082;28;20043;-68
2021/03/27 11:29:29;;;;;;;24.95;11.90;;;;;;;13.33;29.17;94736.94;5090809;28;20107;-69
2021/03/27 11:32:15;;;;;;;21.33;11.40;;;;;;;13.46;29.48;94734.47;5089250;28;20034;-70
2021/03/27 11:34:47;;;;;;;21.77;7.60;;;;;;;13.59;27.64;94728.97;5088589;28;20036;-70
2021/03/27 11:37:18;;;;;;;;;;;;;;;13.58;25.35;94724.72;5091236;28;20020;-70
2021/03/27 11:39:49;;;;;;;6.88;3.22;;;;;;;13.49;23.07;94736.50;5090538;28;19919;-69
2021/03/27 11:42:36;;;;;;;13.68;3.90;;;;;;;13.37;23.60;94729.84;5090670;28;20046;-69
2021/03/27 11:45:13;;;;;;;9.68;4.57;;;;;;;13.24;24.91;94715.41;5090469;28;20027;-69
2021/03/27 11:48:00;;;;;;;9.57;3.53;;;;;;;12.99;24.14;94722.22;5090387;28;20039;-69
2021/03/27 11:50:48;;;;;;;6.75;3.08;;;;;;;12.67;24.18;94717.94;5090254;28;20042;-69
2021/03/27 11:53:30;;;;;;;8.65;3.65;;;;;;;12.73;26.76;94708.69;5090381;28;20012;-69
2021/03/27 11:56:10;;;;;;;10.63;3.95;;;;;;;12.82;25.69;94706.06;5090122;28;20463;-70
2021/03/27 12:01:39;;;;;;;12.32;4.68;;;;;;;12.78;26.09;94705.91;5090360;28;20078;-69
2021/03/27 12:04:15;;;;;;;10.57;4.22;;;;;;;12.79;25.12;94706.69;5090263;28;20027;-69
2021/03/27 12:07:16;;;;;;;11.40;4.07;;;;;;;12.71;25.44;94712.78;5090033;28;20479;-69
2021/03/27 12:10:19;;;;;;;10.13;4.35;;;;;;;12.75;25.54;94708.41;5067560;28;20044;-69
2021/03/27 12:13:06;;;;;;;15.73;4.75;;;;;;;12.83;27.24;94697.75;5090188;28;20028;-69
2021/03/27 12:15:40;;;;;;;11.38;3.78;;;;;;;12.96;25.46;94697.97;5088598;28;20063;-70
2021/03/27 12:18:16;;;;;;;7.15;2.90;;;;;;;12.95;25.30;94699.09;5088999;28;20035;-69
2021/03/27 12:20:41;;;;;;;9.75;3.78;;;;;;;12.82;25.02;94703.41;5088769;28;20551;-69
2021/03/27 12:23:34;;;;;;;7.90;2.97;;;;;;;12.89;23.56;94701.09;5089983;28;20061;-69
2021/03/27 12:26:24;;;;;;;11.35;3.80;;;;;;;12.86;24.25;94691.00;5089943;28;20479;-68
2021/03/27 12:29:00;;;;;;;9.30;3.40;;;;;;;12.90;24.33;94697.31;5088577;28;20407;-69
2021/03/27 12:31:53;;;;;;;4.90;2.85;;;;;;;13.01;24.16;94697.84;5088325;28;20104;-68
2021/03/27 12:34:30;;;;;;;6.78;3.55;;;;;;;13.00;24.60;94689.00;5088425;28;20571;-68
2021/03/27 12:37:01;;;;;;;8.80;4.05;;;;;;;13.10;24.36;94693.31;5089768;28;20536;-68
2021/03/27 12:39:53;;;;;;;9.90;3.58;;;;;;;13.27;24.23;94683.78;5088383;28;20116;-68
2021/03/27 12:42:36;;;;;;;8.40;3.70;;;;;;;13.53;23.83;94678.53;5088557;28;20038;-69